sensor_id;sensor_type;location;lat;lon;timestamp;P1;durP1;ratioP1;P2;durP2;ratioP2
52468;SDS011;38381;53.688;10.776;2023-05-16T00:04:12;5.25;;;3.80;;
52468;SDS011;38381;53.688;10.776;2023-05-16T00:09:13;5.10;;;3.85;;
52468;SDS011;38381;53.688;10.776;2023-05-16T00:14:13;6.23;;;3.83;;
52468;SDS011;38381;53.688;10.776;2023-05-16T00:19:14;5.35;;;3.45;;
52468;SDS011;38381;53.688;10.776;2023-05-16T00:24:14;4.07;;;3.67;;
52468;SDS011;38381;53.688;10.776;2023-05-16T00:29:15;4.93;;;4.18;;
52468;SDS011;38381;53.688;10.776;2023-05-16T00:34:15;3.80;;;3.22;;
52468;SDS011;38381;53.688;10.776;2023-05-16T00:39:16;6.57;;;3.65;;
52468;SDS011;38381;53.688;10.776;2023-05-16T00:44:16;3.47;;;3.15;;
52468;SDS011;38381;53.688;10.776;2023-05-16T00:49:16;6.00;;;3.45;;
52468;SDS011;38381;53.688;10.776;2023-05-16T00:54:17;6.65;;;3.88;;
52468;SDS011;38381;53.688;10.776;2023-05-16T00:59:21;6.18;;;4.00;;
52468;SDS011;38381;53.688;10.776;2023-05-16T01:04:22;5.60;;;3.75;;
52468;SDS011;38381;53.688;10.776;2023-05-16T01:09:23;5.80;;;4.45;;
52468;SDS011;38381;53.688;10.776;2023-05-16T01:35:16;4.53;;;3.63;;
52468;SDS011;38381;53.688;10.776;2023-05-16T01:40:21;5.10;;;4.53;;
52468;SDS011;38381;53.688;10.776;2023-05-16T01:45:30;5.40;;;3.80;;
52468;SDS011;38381;53.688;10.776;2023-05-16T01:50:34;5.60;;;3.40;;
52468;SDS011;38381;53.688;10.776;2023-05-16T01:55:47;5.45;;;3.30;;
52468;SDS011;38381;53.688;10.776;2023-05-16T02:00:51;5.25;;;3.85;;
52468;SDS011;38381;53.688;10.776;2023-05-16T02:05:52;3.70;;;3.00;;
52468;SDS011;38381;53.688;10.776;2023-05-16T02:10:53;3.92;;;3.53;;
52468;SDS011;38381;53.688;10.776;2023-05-16T02:15:53;4.68;;;3.60;;
52468;SDS011;38381;53.688;10.776;2023-05-16T02:20:54;4.80;;;3.33;;
52468;SDS011;38381;53.688;10.776;2023-05-16T02:25:54;4.00;;;3.15;;
52468;SDS011;38381;53.688;10.776;2023-05-16T02:30:56;4.72;;;4.07;;
52468;SDS011;38381;53.688;10.776;2023-05-16T02:35:57;3.65;;;2.97;;
52468;SDS011;38381;53.688;10.776;2023-05-16T02:40:57;4.85;;;3.00;;
52468;SDS011;38381;53.688;10.776;2023-05-16T02:45:58;5.63;;;3.37;;
52468;SDS011;38381;53.688;10.776;2023-05-16T02:50:58;3.83;;;2.60;;
52468;SDS011;38381;53.688;10.776;2023-05-16T02:55:58;3.67;;;2.70;;
52468;SDS011;38381;53.688;10.776;2023-05-16T03:00:59;2.92;;;2.22;;
52468;SDS011;38381;53.688;10.776;2023-05-16T03:05:59;4.78;;;2.80;;
52468;SDS011;38381;53.688;10.776;2023-05-16T03:11:00;2.55;;;2.08;;
52468;SDS011;38381;53.688;10.776;2023-05-16T03:16:00;2.70;;;2.28;;
52468;SDS011;38381;53.688;10.776;2023-05-16T03:21:01;8.50;;;2.58;;
52468;SDS011;38381;53.688;10.776;2023-05-16T03:26:02;2.83;;;2.28;;
52468;SDS011;38381;53.688;10.776;2023-05-16T03:31:02;4.93;;;2.63;;
52468;SDS011;38381;53.688;10.776;2023-05-16T03:36:02;5.85;;;2.47;;
52468;SDS011;38381;53.688;10.776;2023-05-16T03:41:04;10.05;;;2.70;;
52468;SDS011;38381;53.688;10.776;2023-05-16T03:46:04;4.68;;;3.10;;
52468;SDS011;38381;53.688;10.776;2023-05-16T03:51:05;3.30;;;2.03;;
52468;SDS011;38381;53.688;10.776;2023-05-16T03:56:05;6.45;;;3.35;;
52468;SDS011;38381;53.688;10.776;2023-05-16T04:01:06;6.95;;;2.63;;
52468;SDS011;38381;53.688;10.776;2023-05-16T04:06:06;8.35;;;3.15;;
52468;SDS011;38381;53.688;10.776;2023-05-16T04:11:07;7.40;;;3.83;;
52468;SDS011;38381;53.688;10.776;2023-05-16T04:16:08;8.65;;;2.42;;
52468;SDS011;38381;53.688;10.776;2023-05-16T04:21:08;11.90;;;3.28;;
52468;SDS011;38381;53.688;10.776;2023-05-16T04:26:10;7.68;;;3.60;;
52468;SDS011;38381;53.688;10.776;2023-05-16T04:31:11;8.90;;;3.90;;
52468;SDS011;38381;53.688;10.776;2023-05-16T04:36:13;7.82;;;3.75;;
52468;SDS011;38381;53.688;10.776;2023-05-16T04:41:13;9.05;;;3.58;;
52468;SDS011;38381;53.688;10.776;2023-05-16T04:46:14;6.90;;;2.88;;
52468;SDS011;38381;53.688;10.776;2023-05-16T04:51:15;6.97;;;3.42;;
52468;SDS011;38381;53.688;10.776;2023-05-16T04:56:15;11.50;;;3.60;;
52468;SDS011;38381;53.688;10.776;2023-05-16T05:01:16;7.10;;;2.87;;
52468;SDS011;38381;53.688;10.776;2023-05-16T05:06:16;5.82;;;3.35;;
52468;SDS011;38381;53.688;10.776;2023-05-16T05:11:16;9.57;;;3.63;;
52468;SDS011;38381;53.688;10.776;2023-05-16T05:16:17;7.80;;;3.00;;
52468;SDS011;38381;53.688;10.776;2023-05-16T05:21:19;5.95;;;2.60;;
52468;SDS011;38381;53.688;10.776;2023-05-16T05:26:19;7.22;;;3.20;;
52468;SDS011;38381;53.688;10.776;2023-05-16T05:31:21;10.88;;;3.67;;
52468;SDS011;38381;53.688;10.776;2023-05-16T05:36:21;6.78;;;3.15;;
52468;SDS011;38381;53.688;10.776;2023-05-16T05:41:22;8.40;;;2.87;;
52468;SDS011;38381;53.688;10.776;2023-05-16T05:46:22;7.83;;;3.00;;
52468;SDS011;38381;53.688;10.776;2023-05-16T05:51:24;9.88;;;3.65;;
52468;SDS011;38381;53.688;10.776;2023-05-16T05:56:25;8.10;;;2.95;;
52468;SDS011;38381;53.688;10.776;2023-05-16T06:01:25;9.05;;;3.42;;
52468;SDS011;38381;53.688;10.776;2023-05-16T06:06:26;7.05;;;2.55;;
52468;SDS011;38381;53.688;10.776;2023-05-16T06:11:26;4.40;;;3.00;;
52468;SDS011;38381;53.688;10.776;2023-05-16T06:16:27;5.97;;;2.60;;
52468;SDS011;38381;53.688;10.776;2023-05-16T06:21:27;6.18;;;3.60;;
52468;SDS011;38381;53.688;10.776;2023-05-16T06:26:27;5.53;;;2.23;;
52468;SDS011;38381;53.688;10.776;2023-05-16T06:31:28;4.73;;;2.30;;
52468;SDS011;38381;53.688;10.776;2023-05-16T06:36:28;4.43;;;2.03;;
52468;SDS011;38381;53.688;10.776;2023-05-16T06:41:29;8.90;;;2.80;;
52468;SDS011;38381;53.688;10.776;2023-05-16T06:46:29;6.13;;;2.80;;
52468;SDS011;38381;53.688;10.776;2023-05-16T06:51:30;5.05;;;2.67;;
52468;SDS011;38381;53.688;10.776;2023-05-16T06:56:30;7.95;;;2.95;;
52468;SDS011;38381;53.688;10.776;2023-05-16T07:01:31;5.00;;;3.17;;
52468;SDS011;38381;53.688;10.776;2023-05-16T07:06:31;6.82;;;2.38;;
52468;SDS011;38381;53.688;10.776;2023-05-16T07:11:32;9.13;;;3.33;;
52468;SDS011;38381;53.688;10.776;2023-05-16T07:16:32;4.45;;;2.25;;
52468;SDS011;38381;53.688;10.776;2023-05-16T07:21:32;7.03;;;2.53;;
52468;SDS011;38381;53.688;10.776;2023-05-16T07:26:33;8.87;;;2.60;;
52468;SDS011;38381;53.688;10.776;2023-05-16T07:31:33;5.63;;;2.28;;
52468;SDS011;38381;53.688;10.776;2023-05-16T07:36:34;6.60;;;1.77;;
52468;SDS011;38381;53.688;10.776;2023-05-16T07:41:34;6.27;;;2.50;;
52468;SDS011;38381;53.688;10.776;2023-05-16T07:46:37;4.00;;;1.88;;
52468;SDS011;38381;53.688;10.776;2023-05-16T07:51:38;5.22;;;2.00;;
52468;SDS011;38381;53.688;10.776;2023-05-16T07:56:38;3.92;;;1.90;;
52468;SDS011;38381;53.688;10.776;2023-05-16T08:01:38;5.82;;;2.40;;
52468;SDS011;38381;53.688;10.776;2023-05-16T08:06:39;7.00;;;2.20;;
52468;SDS011;38381;53.688;10.776;2023-05-16T08:11:39;3.47;;;1.97;;
52468;SDS011;38381;53.688;10.776;2023-05-16T08:16:40;7.20;;;2.60;;
52468;SDS011;38381;53.688;10.776;2023-05-16T08:21:40;4.53;;;2.40;;
52468;SDS011;38381;53.688;10.776;2023-05-16T08:26:41;10.15;;;2.10;;
52468;SDS011;38381;53.688;10.776;2023-05-16T08:31:41;4.13;;;2.23;;
52468;SDS011;38381;53.688;10.776;2023-05-16T08:36:42;2.58;;;1.70;;
52468;SDS011;38381;53.688;10.776;2023-05-16T08:41:42;6.18;;;2.33;;
52468;SDS011;38381;53.688;10.776;2023-05-16T08:46:43;6.28;;;3.05;;
52468;SDS011;38381;53.688;10.776;2023-05-16T08:51:50;7.57;;;2.17;;
52468;SDS011;38381;53.688;10.776;2023-05-16T08:56:51;5.00;;;2.73;;
52468;SDS011;38381;53.688;10.776;2023-05-16T09:01:52;8.95;;;2.63;;
52468;SDS011;38381;53.688;10.776;2023-05-16T09:06:52;3.28;;;2.05;;
52468;SDS011;38381;53.688;10.776;2023-05-16T09:11:53;3.97;;;2.00;;
52468;SDS011;38381;53.688;10.776;2023-05-16T09:17:06;4.63;;;2.23;;
52468;SDS011;38381;53.688;10.776;2023-05-16T09:22:08;3.22;;;1.95;;
52468;SDS011;38381;53.688;10.776;2023-05-16T09:27:13;6.43;;;3.63;;
52468;SDS011;38381;53.688;10.776;2023-05-16T09:32:15;3.50;;;1.23;;
52468;SDS011;38381;53.688;10.776;2023-05-16T09:37:17;4.23;;;1.57;;
52468;SDS011;38381;53.688;10.776;2023-05-16T09:42:18;4.00;;;2.03;;
52468;SDS011;38381;53.688;10.776;2023-05-16T09:47:20;6.80;;;2.33;;
52468;SDS011;38381;53.688;10.776;2023-05-16T09:52:21;4.45;;;1.80;;
52468;SDS011;38381;53.688;10.776;2023-05-16T09:57:21;8.55;;;1.90;;
52468;SDS011;38381;53.688;10.776;2023-05-16T10:02:22;7.57;;;2.20;;
52468;SDS011;38381;53.688;10.776;2023-05-16T10:07:24;2.10;;;1.13;;
52468;SDS011;38381;53.688;10.776;2023-05-16T10:12:26;5.35;;;1.80;;
52468;SDS011;38381;53.688;10.776;2023-05-16T10:17:31;6.53;;;2.10;;
52468;SDS011;38381;53.688;10.776;2023-05-16T10:22:33;3.20;;;1.95;;
52468;SDS011;38381;53.688;10.776;2023-05-16T10:27:35;2.03;;;1.30;;
52468;SDS011;38381;53.688;10.776;2023-05-16T10:32:36;3.17;;;1.70;;
52468;SDS011;38381;53.688;10.776;2023-05-16T10:37:37;3.20;;;1.30;;
52468;SDS011;38381;53.688;10.776;2023-05-16T10:42:42;2.20;;;1.40;;
52468;SDS011;38381;53.688;10.776;2023-05-16T10:47:50;3.80;;;1.63;;
52468;SDS011;38381;53.688;10.776;2023-05-16T10:52:54;3.03;;;1.65;;
52468;SDS011;38381;53.688;10.776;2023-05-16T10:57:55;3.53;;;2.05;;
52468;SDS011;38381;53.688;10.776;2023-05-16T11:03:05;2.88;;;1.92;;
52468;SDS011;38381;53.688;10.776;2023-05-16T11:08:24;4.15;;;1.55;;
52468;SDS011;38381;53.688;10.776;2023-05-16T11:13:24;5.60;;;1.88;;
52468;SDS011;38381;53.688;10.776;2023-05-16T11:18:25;2.95;;;1.50;;
52468;SDS011;38381;53.688;10.776;2023-05-16T11:23:25;3.25;;;1.23;;
52468;SDS011;38381;53.688;10.776;2023-05-16T11:28:26;2.55;;;1.50;;
52468;SDS011;38381;53.688;10.776;2023-05-16T11:33:29;3.65;;;1.63;;
52468;SDS011;38381;53.688;10.776;2023-05-16T11:38:33;5.07;;;1.77;;
52468;SDS011;38381;53.688;10.776;2023-05-16T11:43:39;4.30;;;1.90;;
52468;SDS011;38381;53.688;10.776;2023-05-16T11:48:44;4.65;;;1.60;;
52468;SDS011;38381;53.688;10.776;2023-05-16T11:53:46;5.30;;;2.05;;
52468;SDS011;38381;53.688;10.776;2023-05-16T11:58:49;3.35;;;1.42;;
52468;SDS011;38381;53.688;10.776;2023-05-16T12:03:56;4.30;;;1.80;;
52468;SDS011;38381;53.688;10.776;2023-05-16T12:08:56;4.80;;;2.50;;
52468;SDS011;38381;53.688;10.776;2023-05-16T12:13:57;7.35;;;2.25;;
52468;SDS011;38381;53.688;10.776;2023-05-16T12:18:58;1.70;;;1.60;;
52468;SDS011;38381;53.688;10.776;2023-05-16T12:24:00;1.23;;;1.10;;
52468;SDS011;38381;53.688;10.776;2023-05-16T12:29:02;3.28;;;1.65;;
52468;SDS011;38381;53.688;10.776;2023-05-16T12:34:13;6.65;;;2.05;;
52468;SDS011;38381;53.688;10.776;2023-05-16T12:39:14;9.95;;;2.00;;
52468;SDS011;38381;53.688;10.776;2023-05-16T12:44:15;3.80;;;1.90;;
52468;SDS011;38381;53.688;10.776;2023-05-16T12:49:18;2.30;;;1.77;;
52468;SDS011;38381;53.688;10.776;2023-05-16T12:54:20;4.53;;;2.08;;
52468;SDS011;38381;53.688;10.776;2023-05-16T12:59:24;3.20;;;2.40;;
52468;SDS011;38381;53.688;10.776;2023-05-16T13:04:25;3.50;;;1.85;;
52468;SDS011;38381;53.688;10.776;2023-05-16T13:09:26;4.37;;;1.50;;
52468;SDS011;38381;53.688;10.776;2023-05-16T13:14:26;8.53;;;2.20;;
52468;SDS011;38381;53.688;10.776;2023-05-16T13:19:27;3.22;;;1.75;;
52468;SDS011;38381;53.688;10.776;2023-05-16T13:24:27;4.18;;;2.38;;
52468;SDS011;38381;53.688;10.776;2023-05-16T13:29:28;4.22;;;2.05;;
52468;SDS011;38381;53.688;10.776;2023-05-16T13:34:28;4.73;;;1.90;;
52468;SDS011;38381;53.688;10.776;2023-05-16T13:39:29;4.57;;;1.85;;
52468;SDS011;38381;53.688;10.776;2023-05-16T13:44:29;4.15;;;1.90;;
52468;SDS011;38381;53.688;10.776;2023-05-16T13:49:30;3.60;;;2.10;;
52468;SDS011;38381;53.688;10.776;2023-05-16T13:54:30;4.50;;;2.28;;
52468;SDS011;38381;53.688;10.776;2023-05-16T13:59:31;2.40;;;1.85;;
52468;SDS011;38381;53.688;10.776;2023-05-16T14:04:31;7.07;;;2.83;;
52468;SDS011;38381;53.688;10.776;2023-05-16T14:09:32;1.58;;;1.08;;
52468;SDS011;38381;53.688;10.776;2023-05-16T14:14:34;2.63;;;1.67;;
52468;SDS011;38381;53.688;10.776;2023-05-16T14:19:34;5.40;;;1.60;;
52468;SDS011;38381;53.688;10.776;2023-05-16T14:24:35;7.00;;;1.50;;
52468;SDS011;38381;53.688;10.776;2023-05-16T14:29:35;3.13;;;1.30;;
52468;SDS011;38381;53.688;10.776;2023-05-16T14:34:36;5.50;;;1.73;;
52468;SDS011;38381;53.688;10.776;2023-05-16T14:39:36;3.22;;;1.85;;
52468;SDS011;38381;53.688;10.776;2023-05-16T14:44:37;5.32;;;1.95;;
52468;SDS011;38381;53.688;10.776;2023-05-16T14:49:37;6.80;;;2.05;;
52468;SDS011;38381;53.688;10.776;2023-05-16T14:54:37;5.32;;;2.28;;
52468;SDS011;38381;53.688;10.776;2023-05-16T14:59:38;2.25;;;1.10;;
52468;SDS011;38381;53.688;10.776;2023-05-16T15:04:38;2.15;;;1.33;;
52468;SDS011;38381;53.688;10.776;2023-05-16T15:09:39;2.37;;;1.30;;
52468;SDS011;38381;53.688;10.776;2023-05-16T15:14:39;1.80;;;1.33;;
52468;SDS011;38381;53.688;10.776;2023-05-16T15:19:39;4.37;;;1.67;;
52468;SDS011;38381;53.688;10.776;2023-05-16T15:24:40;2.05;;;1.58;;
52468;SDS011;38381;53.688;10.776;2023-05-16T15:29:43;4.07;;;1.75;;
52468;SDS011;38381;53.688;10.776;2023-05-16T15:34:44;3.42;;;2.15;;
52468;SDS011;38381;53.688;10.776;2023-05-16T15:39:44;3.90;;;2.50;;
52468;SDS011;38381;53.688;10.776;2023-05-16T15:44:44;2.07;;;1.60;;
52468;SDS011;38381;53.688;10.776;2023-05-16T15:49:45;6.93;;;1.75;;
52468;SDS011;38381;53.688;10.776;2023-05-16T15:54:45;2.57;;;1.33;;
52468;SDS011;38381;53.688;10.776;2023-05-16T15:59:46;4.53;;;1.53;;
52468;SDS011;38381;53.688;10.776;2023-05-16T16:04:46;3.70;;;1.70;;
52468;SDS011;38381;53.688;10.776;2023-05-16T16:09:48;5.77;;;1.63;;
52468;SDS011;38381;53.688;10.776;2023-05-16T16:14:48;2.08;;;1.63;;
52468;SDS011;38381;53.688;10.776;2023-05-16T16:19:49;2.00;;;1.80;;
52468;SDS011;38381;53.688;10.776;2023-05-16T16:24:49;2.60;;;1.83;;
52468;SDS011;38381;53.688;10.776;2023-05-16T16:29:50;3.90;;;1.90;;
52468;SDS011;38381;53.688;10.776;2023-05-16T16:34:50;3.60;;;1.73;;
52468;SDS011;38381;53.688;10.776;2023-05-16T16:39:51;2.08;;;1.58;;
52468;SDS011;38381;53.688;10.776;2023-05-16T16:44:51;2.38;;;2.10;;
52468;SDS011;38381;53.688;10.776;2023-05-16T16:49:52;5.00;;;2.20;;
52468;SDS011;38381;53.688;10.776;2023-05-16T16:54:53;4.40;;;2.17;;
52468;SDS011;38381;53.688;10.776;2023-05-16T16:59:53;4.93;;;1.92;;
52468;SDS011;38381;53.688;10.776;2023-05-16T17:04:54;1.85;;;1.42;;
52468;SDS011;38381;53.688;10.776;2023-05-16T17:09:54;3.42;;;1.77;;
52468;SDS011;38381;53.688;10.776;2023-05-16T17:14:55;5.43;;;1.98;;
52468;SDS011;38381;53.688;10.776;2023-05-16T17:19:56;4.10;;;2.15;;
52468;SDS011;38381;53.688;10.776;2023-05-16T17:24:56;4.18;;;2.15;;
52468;SDS011;38381;53.688;10.776;2023-05-16T17:29:57;4.70;;;2.47;;
52468;SDS011;38381;53.688;10.776;2023-05-16T17:34:57;4.03;;;2.72;;
52468;SDS011;38381;53.688;10.776;2023-05-16T17:40:02;7.47;;;3.53;;
52468;SDS011;38381;53.688;10.776;2023-05-16T17:45:04;7.68;;;3.25;;
52468;SDS011;38381;53.688;10.776;2023-05-16T17:50:07;4.97;;;3.08;;
52468;SDS011;38381;53.688;10.776;2023-05-16T17:55:11;6.10;;;2.97;;
52468;SDS011;38381;53.688;10.776;2023-05-16T18:00:12;5.10;;;2.60;;
52468;SDS011;38381;53.688;10.776;2023-05-16T18:05:14;7.25;;;2.53;;
52468;SDS011;38381;53.688;10.776;2023-05-16T18:10:15;3.40;;;2.47;;
52468;SDS011;38381;53.688;10.776;2023-05-16T18:15:15;2.88;;;1.98;;
52468;SDS011;38381;53.688;10.776;2023-05-16T18:20:17;3.80;;;2.20;;
52468;SDS011;38381;53.688;10.776;2023-05-16T18:25:18;3.60;;;2.30;;
52468;SDS011;38381;53.688;10.776;2023-05-16T18:30:18;5.53;;;2.88;;
52468;SDS011;38381;53.688;10.776;2023-05-16T18:35:20;5.63;;;2.47;;
52468;SDS011;38381;53.688;10.776;2023-05-16T18:40:20;5.40;;;2.90;;
52468;SDS011;38381;53.688;10.776;2023-05-16T18:45:21;4.68;;;2.53;;
52468;SDS011;38381;53.688;10.776;2023-05-16T18:50:22;4.18;;;2.50;;
52468;SDS011;38381;53.688;10.776;2023-05-16T18:55:22;3.55;;;2.97;;
52468;SDS011;38381;53.688;10.776;2023-05-16T19:00:23;5.85;;;2.60;;
52468;SDS011;38381;53.688;10.776;2023-05-16T19:05:23;7.93;;;4.82;;
52468;SDS011;38381;53.688;10.776;2023-05-16T19:10:24;6.38;;;3.08;;
52468;SDS011;38381;53.688;10.776;2023-05-16T19:15:24;6.95;;;3.45;;
52468;SDS011;38381;53.688;10.776;2023-05-16T19:20:25;7.63;;;3.65;;
52468;SDS011;38381;53.688;10.776;2023-05-16T19:25:26;6.63;;;2.85;;
52468;SDS011;38381;53.688;10.776;2023-05-16T19:30:27;4.65;;;3.45;;
52468;SDS011;38381;53.688;10.776;2023-05-16T19:35:27;3.30;;;2.97;;
52468;SDS011;38381;53.688;10.776;2023-05-16T19:40:28;6.80;;;2.95;;
52468;SDS011;38381;53.688;10.776;2023-05-16T19:45:29;7.25;;;3.75;;
52468;SDS011;38381;53.688;10.776;2023-05-16T19:50:29;7.63;;;4.38;;
52468;SDS011;38381;53.688;10.776;2023-05-16T19:55:30;11.85;;;4.72;;
52468;SDS011;38381;53.688;10.776;2023-05-16T20:00:30;7.22;;;4.45;;
52468;SDS011;38381;53.688;10.776;2023-05-16T20:05:31;12.93;;;4.43;;
52468;SDS011;38381;53.688;10.776;2023-05-16T20:10:31;12.65;;;5.25;;
52468;SDS011;38381;53.688;10.776;2023-05-16T20:15:32;10.90;;;4.82;;
52468;SDS011;38381;53.688;10.776;2023-05-16T20:20:32;9.07;;;4.35;;
52468;SDS011;38381;53.688;10.776;2023-05-16T20:25:32;10.33;;;4.63;;
52468;SDS011;38381;53.688;10.776;2023-05-16T20:30:34;9.05;;;5.05;;
52468;SDS011;38381;53.688;10.776;2023-05-16T20:35:34;9.35;;;5.07;;
52468;SDS011;38381;53.688;10.776;2023-05-16T20:40:35;10.60;;;5.20;;
52468;SDS011;38381;53.688;10.776;2023-05-16T20:45:35;8.40;;;4.37;;
52468;SDS011;38381;53.688;10.776;2023-05-16T20:50:35;7.82;;;3.85;;
52468;SDS011;38381;53.688;10.776;2023-05-16T20:55:37;7.43;;;4.70;;
52468;SDS011;38381;53.688;10.776;2023-05-16T21:00:38;8.32;;;4.75;;
52468;SDS011;38381;53.688;10.776;2023-05-16T21:05:38;9.75;;;5.65;;
52468;SDS011;38381;53.688;10.776;2023-05-16T21:10:39;7.25;;;4.43;;
52468;SDS011;38381;53.688;10.776;2023-05-16T21:15:39;7.60;;;4.32;;
52468;SDS011;38381;53.688;10.776;2023-05-16T21:20:39;13.02;;;5.68;;
52468;SDS011;38381;53.688;10.776;2023-05-16T21:25:40;12.55;;;5.32;;
52468;SDS011;38381;53.688;10.776;2023-05-16T21:30:40;11.97;;;5.67;;
52468;SDS011;38381;53.688;10.776;2023-05-16T21:35:41;10.27;;;5.50;;
52468;SDS011;38381;53.688;10.776;2023-05-16T21:40:41;12.48;;;5.75;;
52468;SDS011;38381;53.688;10.776;2023-05-16T21:45:42;9.25;;;6.28;;
52468;SDS011;38381;53.688;10.776;2023-05-16T21:50:42;12.83;;;5.70;;
52468;SDS011;38381;53.688;10.776;2023-05-16T21:55:43;10.80;;;6.20;;
52468;SDS011;38381;53.688;10.776;2023-05-16T22:00:44;10.50;;;6.38;;
52468;SDS011;38381;53.688;10.776;2023-05-16T22:05:44;9.80;;;5.57;;
52468;SDS011;38381;53.688;10.776;2023-05-16T22:10:45;14.75;;;6.75;;
52468;SDS011;38381;53.688;10.776;2023-05-16T22:15:46;9.23;;;4.90;;
52468;SDS011;38381;53.688;10.776;2023-05-16T22:20:46;16.63;;;6.97;;
52468;SDS011;38381;53.688;10.776;2023-05-16T22:25:47;11.77;;;6.55;;
52468;SDS011;38381;53.688;10.776;2023-05-16T22:30:47;11.55;;;6.40;;
52468;SDS011;38381;53.688;10.776;2023-05-16T22:35:48;11.48;;;6.55;;
52468;SDS011;38381;53.688;10.776;2023-05-16T22:40:48;17.40;;;7.35;;
52468;SDS011;38381;53.688;10.776;2023-05-16T22:45:49;13.50;;;5.60;;
52468;SDS011;38381;53.688;10.776;2023-05-16T22:50:50;15.95;;;6.57;;
52468;SDS011;38381;53.688;10.776;2023-05-16T22:55:50;13.57;;;7.03;;
52468;SDS011;38381;53.688;10.776;2023-05-16T23:00:51;12.23;;;5.73;;
52468;SDS011;38381;53.688;10.776;2023-05-16T23:05:52;10.90;;;5.95;;
52468;SDS011;38381;53.688;10.776;2023-05-16T23:10:52;10.20;;;6.72;;
52468;SDS011;38381;53.688;10.776;2023-05-16T23:15:53;13.93;;;6.72;;
52468;SDS011;38381;53.688;10.776;2023-05-16T23:20:53;9.75;;;5.43;;
52468;SDS011;38381;53.688;10.776;2023-05-16T23:25:54;9.95;;;5.85;;
52468;SDS011;38381;53.688;10.776;2023-05-16T23:30:54;9.70;;;5.55;;
52468;SDS011;38381;53.688;10.776;2023-05-16T23:35:54;11.27;;;5.82;;
52468;SDS011;38381;53.688;10.776;2023-05-16T23:40:55;9.90;;;5.93;;
52468;SDS011;38381;53.688;10.776;2023-05-16T23:45:56;11.95;;;5.93;;
52468;SDS011;38381;53.688;10.776;2023-05-16T23:50:56;9.73;;;4.97;;
52468;SDS011;38381;53.688;10.776;2023-05-16T23:55:57;6.47;;;3.67;;
